Overview Statistics Trail Chart Weather Telemetry Raw packets
 

This is the latest recevied weather packets stored in our database for station/object HS2XQB-3. If no packets are shown the sender has not sent any weather packets the latest 10 day(s).

<< 1 2 3 4 5 >>
Time Temp. Humidity Pressure Rain* Wind** Luminosity Snow
1788673851 41.67° C 40% 1005 hPa - - 0 W/m² -
1788672029 41.67° C 40% 1005 hPa - - 0 W/m² -
1788670207 41.11° C 41% 1006 hPa - - 0 W/m² -
1788668384 41.11° C 42% 1006 hPa - - 0 W/m² -
1788666562 40.56° C 43% 1006 hPa - - 0 W/m² -
1788664740 40° C 45% 1007 hPa - - 0 W/m² -
1788662918 38.89° C 48% 1007 hPa - - 0 W/m² -
1788661096 38.33° C 50% 1007 hPa - - 0 W/m² -
1788659274 38.89° C 50% 1007 hPa - - 0 W/m² -
1788657452 38.33° C 51% 1006 hPa - - 0 W/m² -
1788655630 36.11° C 56% 1006 hPa - - 0 W/m² -
1788653808 32.78° C 60% 1005 hPa - - 0 W/m² -
1788651985 31.67° C 60% 1005 hPa - - 0 W/m² -
1788650163 31.11° C 59% 1005 hPa - - 0 W/m² -
1788648341 31.11° C 59% 1005 hPa - - 0 W/m² -
1788646519 31.67° C 59% 1005 hPa - - 0 W/m² -
1788644697 31.67° C 58% 1004 hPa - - 0 W/m² -
1788642875 31.67° C 58% 1004 hPa - - 0 W/m² -
1788641053 31.67° C 58% 1004 hPa - - 0 W/m² -
1788639231 31.67° C 58% 1004 hPa - - 0 W/m² -
1788637409 32.22° C 58% 1004 hPa - - 0 W/m² -
1788635587 32.22° C 58% 1004 hPa - - 0 W/m² -
1788633765 32.22° C 58% 1004 hPa - - 0 W/m² -
1788631943 32.22° C 56% 1005 hPa - - 0 W/m² -
1788630121 32.78° C 56% 1005 hPa - - 0 W/m² -

* Rain since midnight (hover to see other rain measurements)
** Current wind speed in m/s (hover to see current wind gust speed)